sensor_id;sensor_type;location;lat;lon;timestamp;pressure;altitude;pressure_sealevel;temperature;humidity
74218;BME280;62579;47.288;18.646;2023-07-08T00:00:48;100398.22;;;17.36;79.38
74218;BME280;62579;47.288;18.646;2023-07-08T00:03:14;100405.81;;;17.43;78.65
74218;BME280;62579;47.288;18.646;2023-07-08T00:05:40;100403.19;;;17.25;79.05
74218;BME280;62579;47.288;18.646;2023-07-08T00:08:17;100404.34;;;17.29;78.92
74218;BME280;62579;47.288;18.646;2023-07-08T00:10:44;100407.84;;;17.17;79.40
74218;BME280;62579;47.288;18.646;2023-07-08T00:13:10;100411.13;;;17.15;79.21
74218;BME280;62579;47.288;18.646;2023-07-08T00:15:36;100406.56;;;17.05;79.43
74218;BME280;62579;47.288;18.646;2023-07-08T00:18:15;100407.38;;;17.00;79.70
74218;BME280;62579;47.288;18.646;2023-07-08T00:20:44;100410.28;;;17.07;79.02
74218;BME280;62579;47.288;18.646;2023-07-08T00:23:10;100412.25;;;16.94;79.50
74218;BME280;62579;47.288;18.646;2023-07-08T00:25:35;100417.06;;;16.74;80.40
74218;BME280;62579;47.288;18.646;2023-07-08T00:28:01;100406.59;;;16.73;80.28
74218;BME280;62579;47.288;18.646;2023-07-08T00:30:31;100412.84;;;16.73;80.35
74218;BME280;62579;47.288;18.646;2023-07-08T00:32:58;100411.00;;;16.63;82.86
74218;BME280;62579;47.288;18.646;2023-07-08T00:35:30;100409.87;;;16.71;81.55
74218;BME280;62579;47.288;18.646;2023-07-08T00:37:57;100411.78;;;16.76;81.12
74218;BME280;62579;47.288;18.646;2023-07-08T00:40:37;100406.59;;;16.73;80.22
74218;BME280;62579;47.288;18.646;2023-07-08T00:43:05;100416.09;;;16.59;80.83
74218;BME280;62579;47.288;18.646;2023-07-08T00:45:37;100407.94;;;16.53;81.18
74218;BME280;62579;47.288;18.646;2023-07-08T00:48:28;100407.66;;;16.51;81.00
74218;BME280;62579;47.288;18.646;2023-07-08T00:50:54;100402.09;;;16.57;82.02
74218;BME280;62579;47.288;18.646;2023-07-08T00:53:36;100395.59;;;16.41;82.96
74218;BME280;62579;47.288;18.646;2023-07-08T00:58:50;100402.16;;;16.51;81.56
74218;BME280;62579;47.288;18.646;2023-07-08T01:01:17;100400.56;;;16.43;81.16
74218;BME280;62579;47.288;18.646;2023-07-08T01:03:48;100401.16;;;16.36;81.26
74218;BME280;62579;47.288;18.646;2023-07-08T01:06:17;100405.50;;;16.31;81.60
74218;BME280;62579;47.288;18.646;2023-07-08T01:08:43;100398.75;;;16.32;82.46
74218;BME280;62579;47.288;18.646;2023-07-08T01:11:09;100396.41;;;16.36;82.24
74218;BME280;62579;47.288;18.646;2023-07-08T01:13:37;100397.91;;;16.37;81.45
74218;BME280;62579;47.288;18.646;2023-07-08T01:16:06;100391.62;;;16.23;81.65
74218;BME280;62579;47.288;18.646;2023-07-08T01:18:32;100408.69;;;16.16;82.05
74218;BME280;62579;47.288;18.646;2023-07-08T01:21:06;100402.47;;;16.16;81.98
74218;BME280;62579;47.288;18.646;2023-07-08T01:23:52;100410.19;;;15.99;82.79
74218;BME280;62579;47.288;18.646;2023-07-08T01:26:18;100400.38;;;16.03;82.51
74218;BME280;62579;47.288;18.646;2023-07-08T01:28:43;100394.69;;;16.01;82.55
74218;BME280;62579;47.288;18.646;2023-07-08T01:31:09;100399.06;;;15.91;82.79
74218;BME280;62579;47.288;18.646;2023-07-08T01:33:34;100403.72;;;15.78;83.36
74218;BME280;62579;47.288;18.646;2023-07-08T01:36:00;100393.72;;;15.61;83.99
74218;BME280;62579;47.288;18.646;2023-07-08T01:38:26;100401.47;;;15.57;84.24
74218;BME280;62579;47.288;18.646;2023-07-08T01:40:53;100407.44;;;15.61;84.15
74218;BME280;62579;47.288;18.646;2023-07-08T01:43:19;100399.13;;;15.67;84.43
74218;BME280;62579;47.288;18.646;2023-07-08T01:45:45;100404.91;;;15.63;84.25
74218;BME280;62579;47.288;18.646;2023-07-08T01:48:14;100410.09;;;15.43;85.10
74218;BME280;62579;47.288;18.646;2023-07-08T01:51:01;100416.28;;;15.25;86.07
74218;BME280;62579;47.288;18.646;2023-07-08T01:53:38;100409.81;;;15.22;86.22
74218;BME280;62579;47.288;18.646;2023-07-08T01:56:05;100406.28;;;15.27;85.70
74218;BME280;62579;47.288;18.646;2023-07-08T01:58:31;100400.63;;;15.20;86.72
74218;BME280;62579;47.288;18.646;2023-07-08T02:00:57;100404.09;;;15.20;86.66
74218;BME280;62579;47.288;18.646;2023-07-08T02:03:22;100400.56;;;15.25;86.52
74218;BME280;62579;47.288;18.646;2023-07-08T02:05:48;100402.38;;;15.17;86.79
74218;BME280;62579;47.288;18.646;2023-07-08T02:08:14;100398.69;;;15.15;86.83
74218;BME280;62579;47.288;18.646;2023-07-08T02:10:41;100401.47;;;15.09;86.83
74218;BME280;62579;47.288;18.646;2023-07-08T02:13:07;100395.88;;;14.96;87.56
74218;BME280;62579;47.288;18.646;2023-07-08T02:15:32;100400.81;;;15.03;87.06
74218;BME280;62579;47.288;18.646;2023-07-08T02:17:58;100401.25;;;15.07;86.92
74218;BME280;62579;47.288;18.646;2023-07-08T02:20:23;100399.97;;;15.14;86.63
74218;BME280;62579;47.288;18.646;2023-07-08T02:22:48;100405.25;;;15.06;87.11
74218;BME280;62579;47.288;18.646;2023-07-08T02:25:14;100408.56;;;14.99;87.34
74218;BME280;62579;47.288;18.646;2023-07-08T02:27:40;100411.81;;;14.97;87.49
74218;BME280;62579;47.288;18.646;2023-07-08T02:30:06;100405.44;;;14.89;87.54
74218;BME280;62579;47.288;18.646;2023-07-08T02:32:32;100402.63;;;14.95;87.39
74218;BME280;62579;47.288;18.646;2023-07-08T02:35:01;100401.12;;;14.94;87.55
74218;BME280;62579;47.288;18.646;2023-07-08T02:37:28;100402.63;;;14.95;87.31
74218;BME280;62579;47.288;18.646;2023-07-08T02:39:53;100398.84;;;14.98;87.03
74218;BME280;62579;47.288;18.646;2023-07-08T02:42:18;100404.31;;;14.98;87.18
74218;BME280;62579;47.288;18.646;2023-07-08T02:44:43;100413.25;;;15.04;86.91
74218;BME280;62579;47.288;18.646;2023-07-08T02:47:09;100403.19;;;15.12;86.50
74218;BME280;62579;47.288;18.646;2023-07-08T02:49:34;100408.47;;;15.10;86.19
74218;BME280;62579;47.288;18.646;2023-07-08T02:51:59;100414.25;;;15.01;86.15
74218;BME280;62579;47.288;18.646;2023-07-08T02:54:25;100407.75;;;15.04;85.97
74218;BME280;62579;47.288;18.646;2023-07-08T02:56:50;100413.59;;;14.95;86.47
74218;BME280;62579;47.288;18.646;2023-07-08T02:59:15;100415.59;;;14.94;86.61
74218;BME280;62579;47.288;18.646;2023-07-08T03:01:40;100414.13;;;14.88;87.04
74218;BME280;62579;47.288;18.646;2023-07-08T03:04:12;100406.25;;;14.79;87.51
74218;BME280;62579;47.288;18.646;2023-07-08T03:06:44;100407.34;;;14.70;88.45
74218;BME280;62579;47.288;18.646;2023-07-08T03:09:11;100411.59;;;14.66;88.95
74218;BME280;62579;47.288;18.646;2023-07-08T03:11:38;100411.16;;;14.56;89.57
74218;BME280;62579;47.288;18.646;2023-07-08T03:14:04;100414.62;;;14.62;89.08
74218;BME280;62579;47.288;18.646;2023-07-08T03:16:29;100421.34;;;14.61;89.31
74218;BME280;62579;47.288;18.646;2023-07-08T03:18:55;100413.25;;;14.44;90.18
74218;BME280;62579;47.288;18.646;2023-07-08T03:21:20;100412.16;;;14.59;89.36
74218;BME280;62579;47.288;18.646;2023-07-08T03:23:48;100421.59;;;14.58;89.74
74218;BME280;62579;47.288;18.646;2023-07-08T03:26:17;100412.75;;;14.46;90.59
74218;BME280;62579;47.288;18.646;2023-07-08T03:28:44;100426.91;;;14.50;90.61
74218;BME280;62579;47.288;18.646;2023-07-08T03:31:09;100425.34;;;14.60;89.92
74218;BME280;62579;47.288;18.646;2023-07-08T03:33:35;100431.00;;;14.68;89.53
74218;BME280;62579;47.288;18.646;2023-07-08T03:36:01;100434.34;;;14.85;89.25
74218;BME280;62579;47.288;18.646;2023-07-08T03:38:27;100430.25;;;14.97;89.05
74218;BME280;62579;47.288;18.646;2023-07-08T03:40:52;100424.22;;;15.04;88.96
74218;BME280;62579;47.288;18.646;2023-07-08T03:43:18;100434.78;;;15.19;88.71
74218;BME280;62579;47.288;18.646;2023-07-08T03:45:43;100432.91;;;15.32;87.90
74218;BME280;62579;47.288;18.646;2023-07-08T03:48:12;100435.19;;;15.52;88.30
74218;BME280;62579;47.288;18.646;2023-07-08T03:50:38;100443.50;;;15.47;90.16
74218;BME280;62579;47.288;18.646;2023-07-08T03:53:03;100434.06;;;15.67;87.97
74218;BME280;62579;47.288;18.646;2023-07-08T03:55:29;100439.69;;;15.74;86.82
74218;BME280;62579;47.288;18.646;2023-07-08T03:57:54;100443.19;;;15.93;85.98
74218;BME280;62579;47.288;18.646;2023-07-08T04:00:20;100442.53;;;16.06;85.44
74218;BME280;62579;47.288;18.646;2023-07-08T04:02:46;100443.87;;;16.18;85.39
74218;BME280;62579;47.288;18.646;2023-07-08T04:05:16;100438.47;;;16.12;85.29
74218;BME280;62579;47.288;18.646;2023-07-08T04:07:42;100440.69;;;16.14;85.13
74218;BME280;62579;47.288;18.646;2023-07-08T04:10:09;100440.91;;;16.16;85.34
74218;BME280;62579;47.288;18.646;2023-07-08T04:12:35;100441.63;;;16.16;85.93
74218;BME280;62579;47.288;18.646;2023-07-08T04:15:01;100439.22;;;16.13;86.54
74218;BME280;62579;47.288;18.646;2023-07-08T04:17:26;100441.88;;;16.18;86.94
74218;BME280;62579;47.288;18.646;2023-07-08T04:19:51;100433.03;;;16.26;87.17
74218;BME280;62579;47.288;18.646;2023-07-08T04:22:17;100440.59;;;16.38;87.00
74218;BME280;62579;47.288;18.646;2023-07-08T04:24:42;100439.31;;;16.39;87.69
74218;BME280;62579;47.288;18.646;2023-07-08T04:27:13;100446.44;;;16.48;87.64
74218;BME280;62579;47.288;18.646;2023-07-08T04:29:40;100441.84;;;16.56;87.46
74218;BME280;62579;47.288;18.646;2023-07-08T04:32:06;100446.94;;;16.65;88.08
74218;BME280;62579;47.288;18.646;2023-07-08T04:34:31;100439.91;;;16.69;89.07
74218;BME280;62579;47.288;18.646;2023-07-08T04:36:57;100440.87;;;16.85;88.66
74218;BME280;62579;47.288;18.646;2023-07-08T04:39:22;100441.44;;;16.97;88.49
74218;BME280;62579;47.288;18.646;2023-07-08T04:41:47;100443.28;;;17.07;87.84
74218;BME280;62579;47.288;18.646;2023-07-08T04:44:13;100450.87;;;17.14;87.36
74218;BME280;62579;47.288;18.646;2023-07-08T04:46:41;100439.38;;;17.29;86.58
74218;BME280;62579;47.288;18.646;2023-07-08T04:49:08;100444.13;;;17.41;86.16
74218;BME280;62579;47.288;18.646;2023-07-08T04:51:40;100439.47;;;17.50;86.81
74218;BME280;62579;47.288;18.646;2023-07-08T04:54:07;100444.25;;;17.49;86.94
74218;BME280;62579;47.288;18.646;2023-07-08T04:56:40;100442.91;;;17.69;86.33
74218;BME280;62579;47.288;18.646;2023-07-08T04:59:08;100439.25;;;17.87;85.83
74218;BME280;62579;47.288;18.646;2023-07-08T05:01:34;100445.50;;;17.87;86.90
74218;BME280;62579;47.288;18.646;2023-07-08T05:03:59;100453.63;;;18.06;86.56
74218;BME280;62579;47.288;18.646;2023-07-08T05:06:25;100458.19;;;18.04;87.15
74218;BME280;62579;47.288;18.646;2023-07-08T05:08:50;100449.53;;;18.33;86.97
74218;BME280;62579;47.288;18.646;2023-07-08T05:11:15;100448.25;;;18.68;86.15
74218;BME280;62579;47.288;18.646;2023-07-08T05:13:41;100450.84;;;18.94;84.45
74218;BME280;62579;47.288;18.646;2023-07-08T05:16:06;100447.13;;;19.12;84.83
74218;BME280;62579;47.288;18.646;2023-07-08T05:18:31;100453.00;;;19.37;84.72
74218;BME280;62579;47.288;18.646;2023-07-08T05:20:57;100448.94;;;19.59;84.30
74218;BME280;62579;47.288;18.646;2023-07-08T05:23:22;100450.56;;;19.54;80.82
74218;BME280;62579;47.288;18.646;2023-07-08T05:25:48;100454.00;;;19.75;80.70
74218;BME280;62579;47.288;18.646;2023-07-08T05:28:13;100460.81;;;19.82;80.13
74218;BME280;62579;47.288;18.646;2023-07-08T05:30:42;100463.63;;;19.90;80.46
74218;BME280;62579;47.288;18.646;2023-07-08T05:33:08;100466.84;;;20.09;79.58
74218;BME280;62579;47.288;18.646;2023-07-08T05:35:34;100468.03;;;20.28;78.11
74218;BME280;62579;47.288;18.646;2023-07-08T05:37:59;100463.97;;;20.29;77.14
74218;BME280;62579;47.288;18.646;2023-07-08T05:40:25;100475.06;;;20.45;76.71
74218;BME280;62579;47.288;18.646;2023-07-08T05:42:50;100465.50;;;20.61;73.80
74218;BME280;62579;47.288;18.646;2023-07-08T05:45:15;100462.97;;;20.78;74.05
74218;BME280;62579;47.288;18.646;2023-07-08T05:47:41;100465.53;;;20.91;73.61
74218;BME280;62579;47.288;18.646;2023-07-08T05:50:06;100469.62;;;20.98;73.01
74218;BME280;62579;47.288;18.646;2023-07-08T05:52:32;100473.31;;;21.15;73.61
74218;BME280;62579;47.288;18.646;2023-07-08T05:54:57;100469.97;;;21.39;73.69
74218;BME280;62579;47.288;18.646;2023-07-08T05:57:22;100476.59;;;21.51;72.21
74218;BME280;62579;47.288;18.646;2023-07-08T05:59:51;100472.09;;;21.71;70.30
74218;BME280;62579;47.288;18.646;2023-07-08T06:02:18;100476.16;;;21.78;69.63
74218;BME280;62579;47.288;18.646;2023-07-08T06:04:44;100476.88;;;21.93;69.26
74218;BME280;62579;47.288;18.646;2023-07-08T06:07:10;100485.72;;;21.99;66.06
74218;BME280;62579;47.288;18.646;2023-07-08T06:09:35;100471.09;;;22.06;67.36
74218;BME280;62579;47.288;18.646;2023-07-08T06:12:01;100474.34;;;22.20;64.90
74218;BME280;62579;47.288;18.646;2023-07-08T06:14:27;100473.34;;;22.33;63.54
74218;BME280;62579;47.288;18.646;2023-07-08T06:16:53;100467.37;;;22.44;64.40
74218;BME280;62579;47.288;18.646;2023-07-08T06:19:20;100472.69;;;22.49;65.24
74218;BME280;62579;47.288;18.646;2023-07-08T06:21:45;100468.59;;;22.58;64.51
74218;BME280;62579;47.288;18.646;2023-07-08T06:24:10;100471.84;;;22.71;64.06
74218;BME280;62579;47.288;18.646;2023-07-08T06:26:36;100475.81;;;22.86;61.36
74218;BME280;62579;47.288;18.646;2023-07-08T06:29:02;100470.50;;;22.80;60.62
74218;BME280;62579;47.288;18.646;2023-07-08T06:31:28;100476.97;;;23.00;63.75
74218;BME280;62579;47.288;18.646;2023-07-08T06:33:53;100465.75;;;23.15;62.35
74218;BME280;62579;47.288;18.646;2023-07-08T06:36:19;100469.53;;;23.27;62.10
74218;BME280;62579;47.288;18.646;2023-07-08T06:38:44;100477.56;;;23.40;62.49
74218;BME280;62579;47.288;18.646;2023-07-08T06:41:10;100472.69;;;23.48;61.19
74218;BME280;62579;47.288;18.646;2023-07-08T06:43:35;100476.78;;;23.47;59.71
74218;BME280;62579;47.288;18.646;2023-07-08T06:46:00;100472.94;;;23.60;59.30
74218;BME280;62579;47.288;18.646;2023-07-08T06:48:26;100471.47;;;23.76;59.43
74218;BME280;62579;47.288;18.646;2023-07-08T06:50:51;100471.69;;;23.87;58.68
74218;BME280;62579;47.288;18.646;2023-07-08T06:53:17;100464.09;;;23.88;56.12
74218;BME280;62579;47.288;18.646;2023-07-08T06:55:44;100470.47;;;23.98;54.81
74218;BME280;62579;47.288;18.646;2023-07-08T06:58:16;100468.59;;;23.83;54.61
74218;BME280;62579;47.288;18.646;2023-07-08T07:00:42;100461.44;;;24.07;54.65
74218;BME280;62579;47.288;18.646;2023-07-08T07:03:08;100461.94;;;24.13;55.27
74218;BME280;62579;47.288;18.646;2023-07-08T07:05:33;100473.28;;;24.25;55.95
74218;BME280;62579;47.288;18.646;2023-07-08T07:07:59;100465.97;;;24.29;55.49
74218;BME280;62579;47.288;18.646;2023-07-08T07:10:24;100465.47;;;24.40;55.75
74218;BME280;62579;47.288;18.646;2023-07-08T07:12:49;100465.50;;;24.50;52.88
74218;BME280;62579;47.288;18.646;2023-07-08T07:15:15;100470.00;;;24.36;50.72
74218;BME280;62579;47.288;18.646;2023-07-08T07:17:40;100463.44;;;24.50;52.20
74218;BME280;62579;47.288;18.646;2023-07-08T07:20:06;100473.22;;;24.69;51.68
74218;BME280;62579;47.288;18.646;2023-07-08T07:22:31;100467.19;;;24.63;50.98
74218;BME280;62579;47.288;18.646;2023-07-08T07:24:58;100472.31;;;24.66;49.84
74218;BME280;62579;47.288;18.646;2023-07-08T07:27:24;100470.87;;;24.75;47.66
74218;BME280;62579;47.288;18.646;2023-07-08T07:29:50;100473.03;;;24.93;48.71
74218;BME280;62579;47.288;18.646;2023-07-08T07:32:16;100470.16;;;25.11;49.04
74218;BME280;62579;47.288;18.646;2023-07-08T07:34:46;100473.53;;;25.19;46.59
74218;BME280;62579;47.288;18.646;2023-07-08T07:37:12;100466.81;;;25.22;47.35
74218;BME280;62579;47.288;18.646;2023-07-08T07:39:39;100468.09;;;25.21;47.14
74218;BME280;62579;47.288;18.646;2023-07-08T07:42:04;100462.88;;;25.44;47.57
74218;BME280;62579;47.288;18.646;2023-07-08T07:44:30;100459.81;;;25.59;46.60
74218;BME280;62579;47.288;18.646;2023-07-08T07:46:55;100463.47;;;25.61;47.14
74218;BME280;62579;47.288;18.646;2023-07-08T07:49:21;100464.22;;;25.72;47.17
74218;BME280;62579;47.288;18.646;2023-07-08T07:51:46;100454.22;;;25.68;46.97
74218;BME280;62579;47.288;18.646;2023-07-08T07:54:12;100463.34;;;25.79;46.45
74218;BME280;62579;47.288;18.646;2023-07-08T07:56:37;100465.84;;;25.84;45.66
74218;BME280;62579;47.288;18.646;2023-07-08T07:59:03;100461.84;;;25.97;45.30
74218;BME280;62579;47.288;18.646;2023-07-08T08:01:29;100453.19;;;26.02;46.61
74218;BME280;62579;47.288;18.646;2023-07-08T08:03:54;100449.66;;;26.02;45.04
74218;BME280;62579;47.288;18.646;2023-07-08T08:06:20;100445.56;;;26.03;46.47
74218;BME280;62579;47.288;18.646;2023-07-08T08:08:45;100439.25;;;26.02;46.04
74218;BME280;62579;47.288;18.646;2023-07-08T08:11:11;100434.84;;;25.99;45.12
74218;BME280;62579;47.288;18.646;2023-07-08T08:13:37;100439.94;;;26.12;44.50
74218;BME280;62579;47.288;18.646;2023-07-08T08:16:02;100441.53;;;26.25;43.22
74218;BME280;62579;47.288;18.646;2023-07-08T08:18:28;100437.13;;;26.32;43.09
74218;BME280;62579;47.288;18.646;2023-07-08T08:20:53;100440.37;;;26.09;42.30
74218;BME280;62579;47.288;18.646;2023-07-08T08:23:18;100431.41;;;26.30;42.90
74218;BME280;62579;47.288;18.646;2023-07-08T08:25:44;100435.06;;;26.32;43.85
74218;BME280;62579;47.288;18.646;2023-07-08T08:28:09;100428.25;;;26.45;43.06
74218;BME280;62579;47.288;18.646;2023-07-08T08:30:35;100431.28;;;26.58;42.57
74218;BME280;62579;47.288;18.646;2023-07-08T08:33:01;100429.66;;;26.65;42.06
74218;BME280;62579;47.288;18.646;2023-07-08T08:35:27;100425.56;;;26.56;41.37
74218;BME280;62579;47.288;18.646;2023-07-08T08:37:52;100432.75;;;26.59;42.75
74218;BME280;62579;47.288;18.646;2023-07-08T08:40:19;100430.66;;;26.69;42.96
74218;BME280;62579;47.288;18.646;2023-07-08T08:43:06;100435.78;;;26.73;41.18
74218;BME280;62579;47.288;18.646;2023-07-08T08:48:18;100424.38;;;26.59;41.12
74218;BME280;62579;47.288;18.646;2023-07-08T08:50:57;100418.53;;;26.86;41.58
74218;BME280;62579;47.288;18.646;2023-07-08T08:53:26;100418.53;;;26.86;40.95
74218;BME280;62579;47.288;18.646;2023-07-08T08:55:55;100414.81;;;26.62;40.90
74218;BME280;62579;47.288;18.646;2023-07-08T08:58:54;100415.53;;;26.63;41.08
74218;BME280;62579;47.288;18.646;2023-07-08T09:01:23;100416.09;;;26.71;41.78
74218;BME280;62579;47.288;18.646;2023-07-08T09:03:52;100420.72;;;26.88;41.83
74218;BME280;62579;47.288;18.646;2023-07-08T09:06:28;100416.41;;;26.96;41.15
74218;BME280;62579;47.288;18.646;2023-07-08T09:08:57;100413.97;;;27.12;40.11
74218;BME280;62579;47.288;18.646;2023-07-08T09:11:45;100415.88;;;27.09;40.32
74218;BME280;62579;47.288;18.646;2023-07-08T09:14:27;100418.28;;;27.24;40.03
74218;BME280;62579;47.288;18.646;2023-07-08T09:17:04;100420.88;;;27.32;40.52
74218;BME280;62579;47.288;18.646;2023-07-08T09:19:42;100414.56;;;27.31;39.02
74218;BME280;62579;47.288;18.646;2023-07-08T09:22:18;100419.41;;;27.52;39.65
74218;BME280;62579;47.288;18.646;2023-07-08T09:24:53;100423.16;;;27.45;38.94
74218;BME280;62579;47.288;18.646;2023-07-08T09:27:19;100416.16;;;27.56;39.11
74218;BME280;62579;47.288;18.646;2023-07-08T09:29:45;100410.47;;;27.65;40.08
74218;BME280;62579;47.288;18.646;2023-07-08T09:32:18;100415.63;;;27.80;39.73
74218;BME280;62579;47.288;18.646;2023-07-08T09:34:47;100417.84;;;27.93;39.42
74218;BME280;62579;47.288;18.646;2023-07-08T09:37:25;100412.03;;;28.01;39.85
74218;BME280;62579;47.288;18.646;2023-07-08T09:39:52;100411.56;;;28.05;38.01
74218;BME280;62579;47.288;18.646;2023-07-08T09:42:19;100416.31;;;28.14;37.95
74218;BME280;62579;47.288;18.646;2023-07-08T09:44:46;100411.59;;;28.28;37.90
74218;BME280;62579;47.288;18.646;2023-07-08T09:47:28;100406.13;;;28.41;35.92
74218;BME280;62579;47.288;18.646;2023-07-08T09:49:56;100402.34;;;28.25;35.43
74218;BME280;62579;47.288;18.646;2023-07-08T09:52:22;100404.28;;;28.11;35.39
74218;BME280;62579;47.288;18.646;2023-07-08T09:54:47;100401.25;;;28.07;33.37
74218;BME280;62579;47.288;18.646;2023-07-08T09:57:31;100399.69;;;27.83;34.08
74218;BME280;62579;47.288;18.646;2023-07-08T09:59:59;100403.53;;;27.66;36.71
74218;BME280;62579;47.288;18.646;2023-07-08T10:02:31;100396.31;;;27.96;36.13
74218;BME280;62579;47.288;18.646;2023-07-08T10:05:00;100394.13;;;27.94;36.54
74218;BME280;62579;47.288;18.646;2023-07-08T10:07:30;100389.75;;;27.91;37.46
74218;BME280;62579;47.288;18.646;2023-07-08T10:10:00;100391.50;;;28.20;40.43
74218;BME280;62579;47.288;18.646;2023-07-08T10:12:29;100389.81;;;28.26;36.32
74218;BME280;62579;47.288;18.646;2023-07-08T10:15:03;100389.22;;;28.39;36.74
74218;BME280;62579;47.288;18.646;2023-07-08T10:17:31;100385.69;;;28.39;34.92
74218;BME280;62579;47.288;18.646;2023-07-08T10:19:58;100387.88;;;28.52;35.03
74218;BME280;62579;47.288;18.646;2023-07-08T10:22:57;100387.38;;;28.32;36.79
74218;BME280;62579;47.288;18.646;2023-07-08T10:28:33;100387.47;;;28.11;37.61
74218;BME280;62579;47.288;18.646;2023-07-08T10:33:51;100378.00;;;28.39;36.00
74218;BME280;62579;47.288;18.646;2023-07-08T10:36:41;100384.47;;;28.65;36.52
74218;BME280;62579;47.288;18.646;2023-07-08T10:39:16;100378.34;;;28.45;35.96
74218;BME280;62579;47.288;18.646;2023-07-08T10:45:12;100378.75;;;28.75;34.46
74218;BME280;62579;47.288;18.646;2023-07-08T10:53:21;100364.41;;;29.05;36.43
74218;BME280;62579;47.288;18.646;2023-07-08T10:55:57;100365.31;;;29.33;35.20
74218;BME280;62579;47.288;18.646;2023-07-08T10:58:36;100365.81;;;29.30;33.04
74218;BME280;62579;47.288;18.646;2023-07-08T11:01:17;100366.56;;;29.18;34.90
74218;BME280;62579;47.288;18.646;2023-07-08T11:04:07;100360.81;;;29.28;34.52
74218;BME280;62579;47.288;18.646;2023-07-08T11:06:51;100354.16;;;29.47;35.46
74218;BME280;62579;47.288;18.646;2023-07-08T11:10:10;100365.09;;;29.54;37.34
74218;BME280;62579;47.288;18.646;2023-07-08T11:15:14;100355.84;;;29.52;33.67
74218;BME280;62579;47.288;18.646;2023-07-08T11:17:43;100354.72;;;29.57;33.31
74218;BME280;62579;47.288;18.646;2023-07-08T11:20:18;100339.22;;;29.56;34.35
74218;BME280;62579;47.288;18.646;2023-07-08T11:22:56;100342.37;;;29.37;34.52
74218;BME280;62579;47.288;18.646;2023-07-08T11:25:24;100337.47;;;29.62;34.25
74218;BME280;62579;47.288;18.646;2023-07-08T11:27:55;100330.97;;;29.71;34.85
74218;BME280;62579;47.288;18.646;2023-07-08T11:30:23;100327.19;;;29.92;34.73
74218;BME280;62579;47.288;18.646;2023-07-08T11:32:57;100328.03;;;29.69;31.21
74218;BME280;62579;47.288;18.646;2023-07-08T11:35:38;100319.34;;;29.77;32.48
74218;BME280;62579;47.288;18.646;2023-07-08T11:38:05;100323.50;;;29.76;34.45
74218;BME280;62579;47.288;18.646;2023-07-08T11:40:59;100325.72;;;29.52;33.33
74218;BME280;62579;47.288;18.646;2023-07-08T11:43:28;100318.75;;;29.53;33.73
74218;BME280;62579;47.288;18.646;2023-07-08T11:45:56;100319.56;;;29.81;32.37
74218;BME280;62579;47.288;18.646;2023-07-08T11:48:26;100320.50;;;29.86;32.43
74218;BME280;62579;47.288;18.646;2023-07-08T11:50:54;100310.75;;;29.61;32.33
74218;BME280;62579;47.288;18.646;2023-07-08T11:58:57;100320.16;;;29.66;34.61
74218;BME280;62579;47.288;18.646;2023-07-08T12:01:36;100314.13;;;29.71;35.54
74218;BME280;62579;47.288;18.646;2023-07-08T12:09:00;100299.13;;;30.06;32.75
74218;BME280;62579;47.288;18.646;2023-07-08T12:11:43;100297.78;;;30.34;31.95
74218;BME280;62579;47.288;18.646;2023-07-08T12:14:08;100289.59;;;30.38;31.47
74218;BME280;62579;47.288;18.646;2023-07-08T12:16:34;100295.91;;;30.11;31.76
74218;BME280;62579;47.288;18.646;2023-07-08T12:19:01;100293.12;;;30.52;33.04
74218;BME280;62579;47.288;18.646;2023-07-08T12:21:30;100284.78;;;30.27;31.90
74218;BME280;62579;47.288;18.646;2023-07-08T12:24:03;100288.72;;;29.95;32.44
74218;BME280;62579;47.288;18.646;2023-07-08T12:26:29;100287.78;;;29.90;32.04
74218;BME280;62579;47.288;18.646;2023-07-08T12:28:56;100287.19;;;30.19;32.54
74218;BME280;62579;47.288;18.646;2023-07-08T12:31:22;100287.28;;;30.48;31.37
74218;BME280;62579;47.288;18.646;2023-07-08T12:33:49;100280.66;;;30.42;33.02
74218;BME280;62579;47.288;18.646;2023-07-08T12:36:21;100274.69;;;30.63;34.02
74218;BME280;62579;47.288;18.646;2023-07-08T12:38:48;100277.34;;;30.74;34.76
74218;BME280;62579;47.288;18.646;2023-07-08T12:41:22;100272.09;;;30.96;33.03
74218;BME280;62579;47.288;18.646;2023-07-08T12:43:48;100271.19;;;30.91;32.79
74218;BME280;62579;47.288;18.646;2023-07-08T12:46:18;100271.69;;;30.88;31.04
74218;BME280;62579;47.288;18.646;2023-07-08T12:48:44;100269.59;;;30.88;31.87
74218;BME280;62579;47.288;18.646;2023-07-08T12:51:19;100263.22;;;30.59;30.95
74218;BME280;62579;47.288;18.646;2023-07-08T12:53:49;100258.53;;;30.63;31.93
74218;BME280;62579;47.288;18.646;2023-07-08T12:56:15;100257.03;;;30.47;31.61
74218;BME280;62579;47.288;18.646;2023-07-08T12:58:42;100257.22;;;30.37;33.83
74218;BME280;62579;47.288;18.646;2023-07-08T13:01:08;100252.56;;;30.42;31.17
74218;BME280;62579;47.288;18.646;2023-07-08T13:03:45;100258.78;;;30.54;33.21
74218;BME280;62579;47.288;18.646;2023-07-08T13:06:15;100251.97;;;30.72;32.79
74218;BME280;62579;47.288;18.646;2023-07-08T13:08:42;100258.41;;;30.75;33.21
74218;BME280;62579;47.288;18.646;2023-07-08T13:11:08;100259.19;;;30.91;32.52
74218;BME280;62579;47.288;18.646;2023-07-08T13:13:36;100266.38;;;30.94;31.66
74218;BME280;62579;47.288;18.646;2023-07-08T13:16:03;100266.78;;;31.02;33.59
74218;BME280;62579;47.288;18.646;2023-07-08T13:18:37;100261.81;;;31.16;33.30
74218;BME280;62579;47.288;18.646;2023-07-08T13:21:06;100258.13;;;31.27;30.41